Earleville, Maryland
Current Conditions -  °F | °C
As of 10:51 PM on Tuesday 27 Jan 2015 (Local Time) from KILG Reporting Station
Clear Clear  
Wind Chill: 12°   Ceiling: Unl
Heat Index: 25°   Visibility: 10mi
Dew Point:   Wind: 16mph
Humidity: 46%   Direction: 330°NNW
Pressure: 29.91"   Gusts: 25mph
Location:  39.42°N, 75.92°W
Report Text: KILG 280351Z 33014G22KT 10SM CLR M04/M14 A2991 RMK AO2 PK WND 33026/0309 SLP128 T10391139
Loading
Personal Weather Stations






























Interactive Weather Map New forecast layout! Learn more

10-Day Weather Forecast

Advertisements
Track Severe Weather on mobile